sensor_id;sensor_type;location;lat;lon;timestamp;temperature;humidity
6824;DHT22;58633;49.470;11.004;2024-02-14T00:01:17;5.10;69.20
6824;DHT22;58633;49.470;11.004;2024-02-14T00:03:43;5.10;69.30
6824;DHT22;58633;49.470;11.004;2024-02-14T00:06:09;5.10;69.60
6824;DHT22;58633;49.470;11.004;2024-02-14T00:11:03;4.70;69.40
6824;DHT22;58633;49.470;11.004;2024-02-14T00:13:28;5.10;70.30
6824;DHT22;58633;49.470;11.004;2024-02-14T00:15:54;5.00;70.40
6824;DHT22;58633;49.470;11.004;2024-02-14T00:18:22;5.00;70.10
6824;DHT22;58633;49.470;11.004;2024-02-14T00:20:48;5.10;70.30
6824;DHT22;58633;49.470;11.004;2024-02-14T00:23:13;5.00;69.80
6824;DHT22;58633;49.470;11.004;2024-02-14T00:25:39;5.00;70.40
6824;DHT22;58633;49.470;11.004;2024-02-14T00:28:05;5.00;70.80
6824;DHT22;58633;49.470;11.004;2024-02-14T00:30:31;5.50;69.90
6824;DHT22;58633;49.470;11.004;2024-02-14T00:32:56;5.10;70.00
6824;DHT22;58633;49.470;11.004;2024-02-14T00:35:24;5.20;69.90
6824;DHT22;58633;49.470;11.004;2024-02-14T00:37:49;5.10;70.00
6824;DHT22;58633;49.470;11.004;2024-02-14T00:40:15;5.00;70.30
6824;DHT22;58633;49.470;11.004;2024-02-14T00:42:40;5.00;70.30
6824;DHT22;58633;49.470;11.004;2024-02-14T00:45:06;4.90;70.00
6824;DHT22;58633;49.470;11.004;2024-02-14T00:47:35;5.00;70.50
6824;DHT22;58633;49.470;11.004;2024-02-14T00:50:04;4.90;70.50
6824;DHT22;58633;49.470;11.004;2024-02-14T00:52:30;4.90;70.70
6824;DHT22;58633;49.470;11.004;2024-02-14T00:54:55;4.70;70.20
6824;DHT22;58633;49.470;11.004;2024-02-14T00:57:21;4.90;70.80
6824;DHT22;58633;49.470;11.004;2024-02-14T00:59:51;4.80;70.90
6824;DHT22;58633;49.470;11.004;2024-02-14T01:02:17;4.70;70.30
6824;DHT22;58633;49.470;11.004;2024-02-14T01:04:43;4.80;70.50
6824;DHT22;58633;49.470;11.004;2024-02-14T01:07:09;4.70;70.90
6824;DHT22;58633;49.470;11.004;2024-02-14T01:09:35;4.80;70.70
6824;DHT22;58633;49.470;11.004;2024-02-14T01:12:01;4.80;70.80
6824;DHT22;58633;49.470;11.004;2024-02-14T01:14:27;4.80;72.00
6824;DHT22;58633;49.470;11.004;2024-02-14T01:16:53;4.70;71.10
6824;DHT22;58633;49.470;11.004;2024-02-14T01:19:19;4.70;70.90
6824;DHT22;58633;49.470;11.004;2024-02-14T01:21:45;4.70;71.40
6824;DHT22;58633;49.470;11.004;2024-02-14T01:24:14;4.60;70.70
6824;DHT22;58633;49.470;11.004;2024-02-14T01:26:39;4.60;71.20
6824;DHT22;58633;49.470;11.004;2024-02-14T01:29:06;4.50;71.10
6824;DHT22;58633;49.470;11.004;2024-02-14T01:31:32;4.50;71.20
6824;DHT22;58633;49.470;11.004;2024-02-14T01:33:58;4.70;71.10
6824;DHT22;58633;49.470;11.004;2024-02-14T01:38:50;4.60;71.40
6824;DHT22;58633;49.470;11.004;2024-02-14T01:41:15;4.70;71.90
6824;DHT22;58633;49.470;11.004;2024-02-14T01:43:41;4.60;71.50
6824;DHT22;58633;49.470;11.004;2024-02-14T01:46:07;4.60;71.90
6824;DHT22;58633;49.470;11.004;2024-02-14T01:48:34;4.50;71.30
6824;DHT22;58633;49.470;11.004;2024-02-14T01:51:01;4.60;71.90
6824;DHT22;58633;49.470;11.004;2024-02-14T01:53:28;4.60;71.50
6824;DHT22;58633;49.470;11.004;2024-02-14T01:55:57;5.00;72.00
6824;DHT22;58633;49.470;11.004;2024-02-14T01:58:24;4.60;71.60
6824;DHT22;58633;49.470;11.004;2024-02-14T02:00:50;4.70;71.80
6824;DHT22;58633;49.470;11.004;2024-02-14T02:03:21;4.50;71.60
6824;DHT22;58633;49.470;11.004;2024-02-14T02:05:48;4.50;71.60
6824;DHT22;58633;49.470;11.004;2024-02-14T02:08:14;4.60;72.20
6824;DHT22;58633;49.470;11.004;2024-02-14T02:10:40;4.50;71.80
6824;DHT22;58633;49.470;11.004;2024-02-14T02:13:05;4.50;72.40
6824;DHT22;58633;49.470;11.004;2024-02-14T02:15:31;4.50;71.90
6824;DHT22;58633;49.470;11.004;2024-02-14T02:17:57;4.60;72.50
6824;DHT22;58633;49.470;11.004;2024-02-14T02:20:22;4.50;72.40
6824;DHT22;58633;49.470;11.004;2024-02-14T02:22:48;4.10;71.60
6824;DHT22;58633;49.470;11.004;2024-02-14T02:25:14;4.40;72.40
6824;DHT22;58633;49.470;11.004;2024-02-14T02:27:39;4.50;72.10
6824;DHT22;58633;49.470;11.004;2024-02-14T02:30:06;4.50;72.10
6824;DHT22;58633;49.470;11.004;2024-02-14T02:32:32;4.50;72.60
6824;DHT22;58633;49.470;11.004;2024-02-14T02:34:57;4.50;72.30
6824;DHT22;58633;49.470;11.004;2024-02-14T02:37:25;4.60;72.90
6824;DHT22;58633;49.470;11.004;2024-02-14T02:42:17;4.10;71.90
6824;DHT22;58633;49.470;11.004;2024-02-14T02:44:46;4.40;72.10
6824;DHT22;58633;49.470;11.004;2024-02-14T02:47:11;4.70;72.90
6824;DHT22;58633;49.470;11.004;2024-02-14T02:49:38;4.80;72.70
6824;DHT22;58633;49.470;11.004;2024-02-14T02:52:03;4.60;72.90
6824;DHT22;58633;49.470;11.004;2024-02-14T02:54:29;4.40;72.50
6824;DHT22;58633;49.470;11.004;2024-02-14T02:56:55;4.60;73.30
6824;DHT22;58633;49.470;11.004;2024-02-14T03:01:47;4.70;72.60
6824;DHT22;58633;49.470;11.004;2024-02-14T03:04:15;4.70;73.50
6824;DHT22;58633;49.470;11.004;2024-02-14T03:06:40;4.60;73.20
6824;DHT22;58633;49.470;11.004;2024-02-14T03:09:07;4.50;72.60
6824;DHT22;58633;49.470;11.004;2024-02-14T03:14:01;4.30;72.30
6824;DHT22;58633;49.470;11.004;2024-02-14T03:16:27;4.60;72.80
6824;DHT22;58633;49.470;11.004;2024-02-14T03:18:52;4.70;72.80
6824;DHT22;58633;49.470;11.004;2024-02-14T03:21:19;4.70;73.30
6824;DHT22;58633;49.470;11.004;2024-02-14T03:23:45;4.50;73.10
6824;DHT22;58633;49.470;11.004;2024-02-14T03:26:11;4.60;73.20
6824;DHT22;58633;49.470;11.004;2024-02-14T03:28:36;4.50;73.20
6824;DHT22;58633;49.470;11.004;2024-02-14T03:31:02;4.50;73.30
6824;DHT22;58633;49.470;11.004;2024-02-14T03:33:27;4.90;73.50
6824;DHT22;58633;49.470;11.004;2024-02-14T03:35:54;4.40;73.00
6824;DHT22;58633;49.470;11.004;2024-02-14T03:38:29;4.40;73.20
6824;DHT22;58633;49.470;11.004;2024-02-14T03:40:56;4.30;72.90
6824;DHT22;58633;49.470;11.004;2024-02-14T03:43:22;4.40;72.90
6824;DHT22;58633;49.470;11.004;2024-02-14T03:45:49;4.30;73.30
6824;DHT22;58633;49.470;11.004;2024-02-14T03:48:14;4.30;73.20
6824;DHT22;58633;49.470;11.004;2024-02-14T03:50:40;4.70;73.60
6824;DHT22;58633;49.470;11.004;2024-02-14T03:53:07;4.50;73.20
6824;DHT22;58633;49.470;11.004;2024-02-14T03:55:33;4.30;73.60
6824;DHT22;58633;49.470;11.004;2024-02-14T03:57:58;4.30;73.50
6824;DHT22;58633;49.470;11.004;2024-02-14T04:00:24;4.30;73.30
6824;DHT22;58633;49.470;11.004;2024-02-14T04:02:49;4.50;73.30
6824;DHT22;58633;49.470;11.004;2024-02-14T04:05:19;4.40;73.70
6824;DHT22;58633;49.470;11.004;2024-02-14T04:07:44;4.20;73.40
6824;DHT22;58633;49.470;11.004;2024-02-14T04:10:14;4.20;73.50
6824;DHT22;58633;49.470;11.004;2024-02-14T04:12:40;4.30;73.20
6824;DHT22;58633;49.470;11.004;2024-02-14T04:15:06;4.10;73.50
6824;DHT22;58633;49.470;11.004;2024-02-14T04:17:32;4.10;73.70
6824;DHT22;58633;49.470;11.004;2024-02-14T04:19:57;4.10;73.90
6824;DHT22;58633;49.470;11.004;2024-02-14T04:22:23;4.10;74.00
6824;DHT22;58633;49.470;11.004;2024-02-14T04:27:14;4.20;73.60
6824;DHT22;58633;49.470;11.004;2024-02-14T04:29:39;4.10;73.40
6824;DHT22;58633;49.470;11.004;2024-02-14T04:32:05;7.90;77.50
6824;DHT22;58633;49.470;11.004;2024-02-14T04:34:31;4.30;73.70
6824;DHT22;58633;49.470;11.004;2024-02-14T04:36:57;4.30;73.70
6824;DHT22;58633;49.470;11.004;2024-02-14T04:39:23;4.30;74.20
6824;DHT22;58633;49.470;11.004;2024-02-14T04:41:48;4.30;74.30
6824;DHT22;58633;49.470;11.004;2024-02-14T04:44:15;4.30;74.20
6824;DHT22;58633;49.470;11.004;2024-02-14T04:46:40;4.30;74.00
6824;DHT22;58633;49.470;11.004;2024-02-14T04:49:09;4.50;74.20
6824;DHT22;58633;49.470;11.004;2024-02-14T04:51:35;4.30;74.50
6824;DHT22;58633;49.470;11.004;2024-02-14T04:54:00;4.20;74.50
6824;DHT22;58633;49.470;11.004;2024-02-14T04:56:27;4.40;75.30
6824;DHT22;58633;49.470;11.004;2024-02-14T04:58:55;4.40;74.70
6824;DHT22;58633;49.470;11.004;2024-02-14T05:01:21;4.00;73.90
6824;DHT22;58633;49.470;11.004;2024-02-14T05:03:47;4.40;74.40
6824;DHT22;58633;49.470;11.004;2024-02-14T05:06:14;4.30;74.90
6824;DHT22;58633;49.470;11.004;2024-02-14T05:08:39;4.50;75.10
6824;DHT22;58633;49.470;11.004;2024-02-14T05:11:05;4.60;75.10
6824;DHT22;58633;49.470;11.004;2024-02-14T05:13:30;4.50;75.10
6824;DHT22;58633;49.470;11.004;2024-02-14T05:15:56;4.70;74.80
6824;DHT22;58633;49.470;11.004;2024-02-14T05:18:22;4.90;75.00
6824;DHT22;58633;49.470;11.004;2024-02-14T05:20:47;4.60;75.20
6824;DHT22;58633;49.470;11.004;2024-02-14T05:23:13;4.60;74.70
6824;DHT22;58633;49.470;11.004;2024-02-14T05:25:39;4.80;75.00
6824;DHT22;58633;49.470;11.004;2024-02-14T05:28:05;4.70;74.80
6824;DHT22;58633;49.470;11.004;2024-02-14T05:30:30;4.80;75.40
6824;DHT22;58633;49.470;11.004;2024-02-14T05:32:57;4.70;75.30
6824;DHT22;58633;49.470;11.004;2024-02-14T05:35:22;4.70;75.40
6824;DHT22;58633;49.470;11.004;2024-02-14T05:37:49;4.80;75.30
6824;DHT22;58633;49.470;11.004;2024-02-14T05:40:15;4.80;75.30
6824;DHT22;58633;49.470;11.004;2024-02-14T05:42:41;4.80;75.20
6824;DHT22;58633;49.470;11.004;2024-02-14T05:45:07;4.50;74.60
6824;DHT22;58633;49.470;11.004;2024-02-14T05:47:35;4.80;75.40
6824;DHT22;58633;49.470;11.004;2024-02-14T05:50:01;4.80;75.50
6824;DHT22;58633;49.470;11.004;2024-02-14T05:52:26;5.10;75.30
6824;DHT22;58633;49.470;11.004;2024-02-14T05:54:52;4.90;75.20
6824;DHT22;58633;49.470;11.004;2024-02-14T05:57:17;4.90;75.20
6824;DHT22;58633;49.470;11.004;2024-02-14T06:02:09;5.00;75.30
6824;DHT22;58633;49.470;11.004;2024-02-14T06:07:01;5.10;75.30
6824;DHT22;58633;49.470;11.004;2024-02-14T06:09:28;5.00;75.30
6824;DHT22;58633;49.470;11.004;2024-02-14T06:11:53;5.00;75.20
6824;DHT22;58633;49.470;11.004;2024-02-14T06:14:19;5.10;75.80
6824;DHT22;58633;49.470;11.004;2024-02-14T06:16:44;5.20;75.50
6824;DHT22;58633;49.470;11.004;2024-02-14T06:19:10;5.10;76.00
6824;DHT22;58633;49.470;11.004;2024-02-14T06:21:36;1.80;72.30
6824;DHT22;58633;49.470;11.004;2024-02-14T06:24:02;5.20;75.50
6824;DHT22;58633;49.470;11.004;2024-02-14T06:26:30;5.30;75.70
6824;DHT22;58633;49.470;11.004;2024-02-14T06:28:55;5.20;76.00
6824;DHT22;58633;49.470;11.004;2024-02-14T06:31:22;6.00;76.30
6824;DHT22;58633;49.470;11.004;2024-02-14T06:33:47;5.20;75.40
6824;DHT22;58633;49.470;11.004;2024-02-14T06:36:13;5.30;75.70
6824;DHT22;58633;49.470;11.004;2024-02-14T06:38:39;5.40;76.30
6824;DHT22;58633;49.470;11.004;2024-02-14T06:41:05;5.60;75.80
6824;DHT22;58633;49.470;11.004;2024-02-14T06:43:30;5.00;75.20
6824;DHT22;58633;49.470;11.004;2024-02-14T06:45:56;5.90;76.10
6824;DHT22;58633;49.470;11.004;2024-02-14T06:48:22;5.60;75.70
6824;DHT22;58633;49.470;11.004;2024-02-14T06:50:49;5.50;76.10
6824;DHT22;58633;49.470;11.004;2024-02-14T06:53:15;5.70;75.70
6824;DHT22;58633;49.470;11.004;2024-02-14T06:55:40;5.30;75.80
6824;DHT22;58633;49.470;11.004;2024-02-14T06:58:06;5.80;75.60
6824;DHT22;58633;49.470;11.004;2024-02-14T07:00:32;5.60;75.40
6824;DHT22;58633;49.470;11.004;2024-02-14T07:02:58;5.40;75.20
6824;DHT22;58633;49.470;11.004;2024-02-14T07:05:25;5.30;75.00
6824;DHT22;58633;49.470;11.004;2024-02-14T07:07:51;5.60;75.30
6824;DHT22;58633;49.470;11.004;2024-02-14T07:10:17;5.60;75.90
6824;DHT22;58633;49.470;11.004;2024-02-14T07:12:42;5.60;76.00
6824;DHT22;58633;49.470;11.004;2024-02-14T07:15:08;5.90;75.50
6824;DHT22;58633;49.470;11.004;2024-02-14T07:17:33;6.00;76.10
6824;DHT22;58633;49.470;11.004;2024-02-14T07:19:59;6.10;75.60
6824;DHT22;58633;49.470;11.004;2024-02-14T07:22:24;6.00;76.00
6824;DHT22;58633;49.470;11.004;2024-02-14T07:24:50;6.30;75.20
6824;DHT22;58633;49.470;11.004;2024-02-14T07:27:15;6.00;75.40
6824;DHT22;58633;49.470;11.004;2024-02-14T07:29:42;6.10;75.30
6824;DHT22;58633;49.470;11.004;2024-02-14T07:32:07;5.90;75.10
6824;DHT22;58633;49.470;11.004;2024-02-14T07:34:33;6.00;75.60
6824;DHT22;58633;49.470;11.004;2024-02-14T07:36:58;6.30;75.80
6824;DHT22;58633;49.470;11.004;2024-02-14T07:39:24;5.70;75.40
6824;DHT22;58633;49.470;11.004;2024-02-14T07:41:50;6.10;76.30
6824;DHT22;58633;49.470;11.004;2024-02-14T07:44:16;6.60;76.00
6824;DHT22;58633;49.470;11.004;2024-02-14T07:46:41;6.20;76.10
6824;DHT22;58633;49.470;11.004;2024-02-14T07:49:07;6.30;76.20
6824;DHT22;58633;49.470;11.004;2024-02-14T07:51:33;8.50;78.40
6824;DHT22;58633;49.470;11.004;2024-02-14T07:54:03;6.40;76.50
6824;DHT22;58633;49.470;11.004;2024-02-14T07:56:29;6.60;76.10
6824;DHT22;58633;49.470;11.004;2024-02-14T07:58:55;6.50;76.60
6824;DHT22;58633;49.470;11.004;2024-02-14T08:01:20;6.30;75.80
6824;DHT22;58633;49.470;11.004;2024-02-14T08:03:46;6.70;76.00
6824;DHT22;58633;49.470;11.004;2024-02-14T08:06:12;6.70;76.40
6824;DHT22;58633;49.470;11.004;2024-02-14T08:08:37;6.80;76.10
6824;DHT22;58633;49.470;11.004;2024-02-14T08:11:03;7.00;76.00
6824;DHT22;58633;49.470;11.004;2024-02-14T08:13:29;6.90;76.10
6824;DHT22;58633;49.470;11.004;2024-02-14T08:15:54;8.70;77.60
6824;DHT22;58633;49.470;11.004;2024-02-14T08:18:20;7.80;76.70
6824;DHT22;58633;49.470;11.004;2024-02-14T08:20:45;6.90;76.10
6824;DHT22;58633;49.470;11.004;2024-02-14T08:23:11;6.90;75.70
6824;DHT22;58633;49.470;11.004;2024-02-14T08:25:36;7.10;75.70
6824;DHT22;58633;49.470;11.004;2024-02-14T08:28:02;6.80;74.80
6824;DHT22;58633;49.470;11.004;2024-02-14T08:30:28;6.90;75.40
6824;DHT22;58633;49.470;11.004;2024-02-14T08:32:53;6.90;75.40
6824;DHT22;58633;49.470;11.004;2024-02-14T08:35:19;6.90;75.50
6824;DHT22;58633;49.470;11.004;2024-02-14T08:37:44;7.00;75.70
6824;DHT22;58633;49.470;11.004;2024-02-14T08:40:10;7.00;75.40
6824;DHT22;58633;49.470;11.004;2024-02-14T08:42:37;6.80;75.70
6824;DHT22;58633;49.470;11.004;2024-02-14T08:45:04;6.90;76.00
6824;DHT22;58633;49.470;11.004;2024-02-14T08:47:29;7.30;76.00
6824;DHT22;58633;49.470;11.004;2024-02-14T08:49:55;7.00;76.10
6824;DHT22;58633;49.470;11.004;2024-02-14T08:52:20;7.10;76.40
6824;DHT22;58633;49.470;11.004;2024-02-14T08:54:46;7.00;76.30
6824;DHT22;58633;49.470;11.004;2024-02-14T08:57:12;7.30;76.60
6824;DHT22;58633;49.470;11.004;2024-02-14T08:59:37;7.30;76.50
6824;DHT22;58633;49.470;11.004;2024-02-14T09:02:03;7.30;76.60
6824;DHT22;58633;49.470;11.004;2024-02-14T09:04:29;7.50;76.80
6824;DHT22;58633;49.470;11.004;2024-02-14T09:06:54;7.50;76.90
6824;DHT22;58633;49.470;11.004;2024-02-14T09:09:20;7.70;76.80
6824;DHT22;58633;49.470;11.004;2024-02-14T09:11:45;7.80;76.80
6824;DHT22;58633;49.470;11.004;2024-02-14T09:14:13;7.70;76.70
6824;DHT22;58633;49.470;11.004;2024-02-14T09:16:39;7.90;76.50
6824;DHT22;58633;49.470;11.004;2024-02-14T09:19:05;7.90;76.20
6824;DHT22;58633;49.470;11.004;2024-02-14T09:21:33;8.00;76.30
6824;DHT22;58633;49.470;11.004;2024-02-14T09:24:01;7.90;75.70
6824;DHT22;58633;49.470;11.004;2024-02-14T09:26:26;8.20;75.70
6824;DHT22;58633;49.470;11.004;2024-02-14T09:28:52;8.50;74.60
6824;DHT22;58633;49.470;11.004;2024-02-14T09:31:19;8.40;74.90
6824;DHT22;58633;49.470;11.004;2024-02-14T09:33:46;8.40;74.40
6824;DHT22;58633;49.470;11.004;2024-02-14T09:36:13;8.60;74.80
6824;DHT22;58633;49.470;11.004;2024-02-14T09:38:39;8.60;73.60
6824;DHT22;58633;49.470;11.004;2024-02-14T09:41:15;8.50;73.90
6824;DHT22;58633;49.470;11.004;2024-02-14T09:43:45;8.70;74.10
6824;DHT22;58633;49.470;11.004;2024-02-14T09:46:14;8.70;73.10
6824;DHT22;58633;49.470;11.004;2024-02-14T09:48:44;8.90;73.70
6824;DHT22;58633;49.470;11.004;2024-02-14T09:51:10;9.00;73.30
6824;DHT22;58633;49.470;11.004;2024-02-14T09:53:38;9.00;73.00
6824;DHT22;58633;49.470;11.004;2024-02-14T09:56:04;9.10;73.00
6824;DHT22;58633;49.470;11.004;2024-02-14T09:58:31;9.10;72.80
6824;DHT22;58633;49.470;11.004;2024-02-14T10:00:57;9.10;72.50
6824;DHT22;58633;49.470;11.004;2024-02-14T10:03:22;9.10;72.30
6824;DHT22;58633;49.470;11.004;2024-02-14T10:05:48;9.20;72.40
6824;DHT22;58633;49.470;11.004;2024-02-14T10:08:14;9.10;72.20
6824;DHT22;58633;49.470;11.004;2024-02-14T10:10:39;9.20;72.50
6824;DHT22;58633;49.470;11.004;2024-02-14T10:13:06;9.30;72.30
6824;DHT22;58633;49.470;11.004;2024-02-14T10:15:32;9.30;71.20
6824;DHT22;58633;49.470;11.004;2024-02-14T10:17:59;9.30;71.70
6824;DHT22;58633;49.470;11.004;2024-02-14T10:20:25;9.40;71.70
6824;DHT22;58633;49.470;11.004;2024-02-14T10:22:59;9.50;72.00
6824;DHT22;58633;49.470;11.004;2024-02-14T10:25:25;10.60;71.50
6824;DHT22;58633;49.470;11.004;2024-02-14T10:27:51;9.60;71.40
6824;DHT22;58633;49.470;11.004;2024-02-14T10:30:16;10.00;69.50
6824;DHT22;58633;49.470;11.004;2024-02-14T10:32:42;9.60;70.70
6824;DHT22;58633;49.470;11.004;2024-02-14T10:35:13;9.70;70.80
6824;DHT22;58633;49.470;11.004;2024-02-14T10:37:39;9.90;70.80
6824;DHT22;58633;49.470;11.004;2024-02-14T10:40:05;9.90;70.70
6824;DHT22;58633;49.470;11.004;2024-02-14T10:42:32;9.80;70.40
6824;DHT22;58633;49.470;11.004;2024-02-14T10:44:57;10.00;69.20
6824;DHT22;58633;49.470;11.004;2024-02-14T10:47:30;10.10;69.80
6824;DHT22;58633;49.470;11.004;2024-02-14T10:50:00;10.20;69.30
6824;DHT22;58633;49.470;11.004;2024-02-14T10:52:30;10.20;69.40
6824;DHT22;58633;49.470;11.004;2024-02-14T10:54:59;10.20;69.40
6824;DHT22;58633;49.470;11.004;2024-02-14T10:57:27;10.30;69.10
6824;DHT22;58633;49.470;11.004;2024-02-14T10:59:54;10.30;69.20
6824;DHT22;58633;49.470;11.004;2024-02-14T11:02:22;10.20;68.90
6824;DHT22;58633;49.470;11.004;2024-02-14T11:04:49;10.20;69.00
6824;DHT22;58633;49.470;11.004;2024-02-14T11:07:19;10.20;68.80
6824;DHT22;58633;49.470;11.004;2024-02-14T11:09:45;10.10;69.00
6824;DHT22;58633;49.470;11.004;2024-02-14T11:12:10;10.20;68.80
6824;DHT22;58633;49.470;11.004;2024-02-14T11:14:36;10.30;69.10
6824;DHT22;58633;49.470;11.004;2024-02-14T11:17:04;10.40;69.10
6824;DHT22;58633;49.470;11.004;2024-02-14T11:19:34;10.40;69.00
6824;DHT22;58633;49.470;11.004;2024-02-14T11:22:21;11.70;70.00
6824;DHT22;58633;49.470;11.004;2024-02-14T11:24:48;10.30;68.70
6824;DHT22;58633;49.470;11.004;2024-02-14T11:27:14;10.30;69.20
6824;DHT22;58633;49.470;11.004;2024-02-14T11:29:40;10.50;69.70
6824;DHT22;58633;49.470;11.004;2024-02-14T11:32:17;10.60;70.20
6824;DHT22;58633;49.470;11.004;2024-02-14T11:34:43;10.60;69.80
6824;DHT22;58633;49.470;11.004;2024-02-14T11:37:09;10.80;70.40
6824;DHT22;58633;49.470;11.004;2024-02-14T11:39:35;10.70;70.00
6824;DHT22;58633;49.470;11.004;2024-02-14T11:42:01;10.80;70.10
6824;DHT22;58633;49.470;11.004;2024-02-14T11:44:27;10.80;70.10
6824;DHT22;58633;49.470;11.004;2024-02-14T11:46:52;10.90;70.00
6824;DHT22;58633;49.470;11.004;2024-02-14T11:49:18;10.90;69.70
6824;DHT22;58633;49.470;11.004;2024-02-14T11:51:44;10.90;69.80
6824;DHT22;58633;49.470;11.004;2024-02-14T11:54:09;10.90;69.80
6824;DHT22;58633;49.470;11.004;2024-02-14T11:56:36;11.10;70.20
6824;DHT22;58633;49.470;11.004;2024-02-14T11:59:03;11.20;69.10
6824;DHT22;58633;49.470;11.004;2024-02-14T12:01:34;11.30;69.70
6824;DHT22;58633;49.470;11.004;2024-02-14T12:04:01;11.50;69.90
6824;DHT22;58633;49.470;11.004;2024-02-14T12:06:31;11.40;69.70
6824;DHT22;58633;49.470;11.004;2024-02-14T12:08:58;11.40;69.70
6824;DHT22;58633;49.470;11.004;2024-02-14T12:11:27;11.40;69.90
6824;DHT22;58633;49.470;11.004;2024-02-14T12:13:54;11.70;70.20
6824;DHT22;58633;49.470;11.004;2024-02-14T12:16:20;11.50;70.20
6824;DHT22;58633;49.470;11.004;2024-02-14T12:18:46;11.50;70.40
6824;DHT22;58633;49.470;11.004;2024-02-14T12:21:11;11.40;70.10
6824;DHT22;58633;49.470;11.004;2024-02-14T12:23:38;11.40;70.30
6824;DHT22;58633;49.470;11.004;2024-02-14T12:26:04;11.30;70.40
6824;DHT22;58633;49.470;11.004;2024-02-14T12:28:30;11.40;70.50
6824;DHT22;58633;49.470;11.004;2024-02-14T12:30:57;11.50;70.70
6824;DHT22;58633;49.470;11.004;2024-02-14T12:33:26;11.50;70.60
6824;DHT22;58633;49.470;11.004;2024-02-14T12:35:56;11.50;70.50
6824;DHT22;58633;49.470;11.004;2024-02-14T12:38:22;11.50;70.30
6824;DHT22;58633;49.470;11.004;2024-02-14T12:40:48;11.50;70.60
6824;DHT22;58633;49.470;11.004;2024-02-14T12:43:15;11.60;70.70
6824;DHT22;58633;49.470;11.004;2024-02-14T12:45:44;11.60;70.30
6824;DHT22;58633;49.470;11.004;2024-02-14T12:48:12;11.60;70.20
6824;DHT22;58633;49.470;11.004;2024-02-14T12:50:39;11.60;70.20
6824;DHT22;58633;49.470;11.004;2024-02-14T12:53:05;11.60;70.40
6824;DHT22;58633;49.470;11.004;2024-02-14T12:55:30;11.60;71.50
6824;DHT22;58633;49.470;11.004;2024-02-14T12:57:56;11.60;71.50
6824;DHT22;58633;49.470;11.004;2024-02-14T13:00:22;11.50;71.60
6824;DHT22;58633;49.470;11.004;2024-02-14T13:02:49;11.50;71.90
6824;DHT22;58633;49.470;11.004;2024-02-14T13:05:14;11.70;72.10
6824;DHT22;58633;49.470;11.004;2024-02-14T13:07:41;11.70;72.10
6824;DHT22;58633;49.470;11.004;2024-02-14T13:10:07;11.90;72.40
6824;DHT22;58633;49.470;11.004;2024-02-14T13:12:35;11.90;71.80
6824;DHT22;58633;49.470;11.004;2024-02-14T13:15:00;11.90;71.40
6824;DHT22;58633;49.470;11.004;2024-02-14T13:17:26;11.80;71.30
6824;DHT22;58633;49.470;11.004;2024-02-14T13:19:52;12.00;71.60
6824;DHT22;58633;49.470;11.004;2024-02-14T13:22:18;12.00;71.60
6824;DHT22;58633;49.470;11.004;2024-02-14T13:24:44;12.00;71.00
6824;DHT22;58633;49.470;11.004;2024-02-14T13:27:10;12.10;71.10
6824;DHT22;58633;49.470;11.004;2024-02-14T13:29:35;12.00;70.80
6824;DHT22;58633;49.470;11.004;2024-02-14T13:32:01;12.10;70.80
6824;DHT22;58633;49.470;11.004;2024-02-14T13:34:28;12.00;70.90
6824;DHT22;58633;49.470;11.004;2024-02-14T13:36:54;12.10;70.30
6824;DHT22;58633;49.470;11.004;2024-02-14T13:39:19;12.00;70.10
6824;DHT22;58633;49.470;11.004;2024-02-14T13:41:46;12.10;70.20
6824;DHT22;58633;49.470;11.004;2024-02-14T13:44:13;12.00;70.30
6824;DHT22;58633;49.470;11.004;2024-02-14T13:46:43;11.80;70.50
6824;DHT22;58633;49.470;11.004;2024-02-14T13:49:10;11.80;70.80
6824;DHT22;58633;49.470;11.004;2024-02-14T13:51:37;11.80;71.10
6824;DHT22;58633;49.470;11.004;2024-02-14T13:54:02;11.80;71.80
6824;DHT22;58633;49.470;11.004;2024-02-14T13:56:28;12.00;71.10
6824;DHT22;58633;49.470;11.004;2024-02-14T13:58:54;11.80;71.20
6824;DHT22;58633;49.470;11.004;2024-02-14T14:01:19;11.80;71.60
6824;DHT22;58633;49.470;11.004;2024-02-14T14:03:45;12.00;71.90
6824;DHT22;58633;49.470;11.004;2024-02-14T14:06:11;11.70;71.80
6824;DHT22;58633;49.470;11.004;2024-02-14T14:08:37;11.70;72.00
6824;DHT22;58633;49.470;11.004;2024-02-14T14:11:03;11.60;72.60
6824;DHT22;58633;49.470;11.004;2024-02-14T14:13:29;11.70;72.70
6824;DHT22;58633;49.470;11.004;2024-02-14T14:15:56;11.80;72.80
6824;DHT22;58633;49.470;11.004;2024-02-14T14:18:22;11.90;72.80
6824;DHT22;58633;49.470;11.004;2024-02-14T14:20:49;11.90;72.50
6824;DHT22;58633;49.470;11.004;2024-02-14T14:23:14;11.90;72.60
6824;DHT22;58633;49.470;11.004;2024-02-14T14:25:40;11.90;72.50
6824;DHT22;58633;49.470;11.004;2024-02-14T14:28:05;12.00;72.40
6824;DHT22;58633;49.470;11.004;2024-02-14T14:30:31;12.00;72.50
6824;DHT22;58633;49.470;11.004;2024-02-14T14:32:56;11.90;72.20
6824;DHT22;58633;49.470;11.004;2024-02-14T14:35:22;12.00;72.50
6824;DHT22;58633;49.470;11.004;2024-02-14T14:37:47;12.00;71.60
6824;DHT22;58633;49.470;11.004;2024-02-14T14:40:13;11.90;71.80
6824;DHT22;58633;49.470;11.004;2024-02-14T14:42:39;11.90;71.90
6824;DHT22;58633;49.470;11.004;2024-02-14T14:45:04;11.90;71.80
6824;DHT22;58633;49.470;11.004;2024-02-14T14:47:30;11.90;72.10
6824;DHT22;58633;49.470;11.004;2024-02-14T14:49:56;11.90;71.90
6824;DHT22;58633;49.470;11.004;2024-02-14T14:52:21;11.80;71.80
6824;DHT22;58633;49.470;11.004;2024-02-14T14:54:47;11.70;71.70
6824;DHT22;58633;49.470;11.004;2024-02-14T14:57:12;11.80;71.80
6824;DHT22;58633;49.470;11.004;2024-02-14T14:59:41;11.60;71.80
6824;DHT22;58633;49.470;11.004;2024-02-14T15:02:07;11.80;72.00
6824;DHT22;58633;49.470;11.004;2024-02-14T15:04:32;11.70;71.80
6824;DHT22;58633;49.470;11.004;2024-02-14T15:07:00;11.80;71.90
6824;DHT22;58633;49.470;11.004;2024-02-14T15:09:25;11.70;71.80
6824;DHT22;58633;49.470;11.004;2024-02-14T15:11:51;11.80;71.90
6824;DHT22;58633;49.470;11.004;2024-02-14T15:14:18;11.70;71.80
6824;DHT22;58633;49.470;11.004;2024-02-14T15:16:43;12.80;72.90
6824;DHT22;58633;49.470;11.004;2024-02-14T15:19:09;12.00;72.10
6824;DHT22;58633;49.470;11.004;2024-02-14T15:21:35;11.80;72.20
6824;DHT22;58633;49.470;11.004;2024-02-14T15:24:00;11.90;71.90
6824;DHT22;58633;49.470;11.004;2024-02-14T15:26:26;11.90;72.10
6824;DHT22;58633;49.470;11.004;2024-02-14T15:28:52;11.80;71.90
6824;DHT22;58633;49.470;11.004;2024-02-14T15:31:43;12.00;72.40
6824;DHT22;58633;49.470;11.004;2024-02-14T15:34:27;11.90;72.00
6824;DHT22;58633;49.470;11.004;2024-02-14T15:36:52;11.90;72.30
6824;DHT22;58633;49.470;11.004;2024-02-14T15:39:18;12.00;72.10
6824;DHT22;58633;49.470;11.004;2024-02-14T15:41:43;12.00;72.20
6824;DHT22;58633;49.470;11.004;2024-02-14T15:44:09;12.10;72.30
6824;DHT22;58633;49.470;11.004;2024-02-14T15:46:35;12.00;72.00
6824;DHT22;58633;49.470;11.004;2024-02-14T15:49:00;11.80;71.80
6824;DHT22;58633;49.470;11.004;2024-02-14T15:51:26;11.90;72.20
6824;DHT22;58633;49.470;11.004;2024-02-14T15:53:52;12.00;72.30